EDT,Max TemperatureF,Mean TemperatureF,Min TemperatureF,Max Dew PointF,MeanDew PointF,Min DewpointF,Max Humidity, Mean Humidity, Min Humidity, Max Sea Level PressureIn, Mean Sea Level PressureIn, Min Sea Level PressureIn, Max VisibilityMiles, Mean VisibilityMiles, Min VisibilityMiles, Max Wind SpeedMPH, Mean Wind SpeedMPH, Max Gust SpeedMPH,PrecipitationIn, CloudCover, Events, WindDirDegrees
2013-6-1,89,76,64,70,66,63,94,68,43,30.06,29.99,29.93,10,10,10,15,5,23,0.00,0,,187
2013-6-2,84,78,71,72,68,66,88,77,62,29.91,29.88,29.86,10,10,10,12,8,17,0.00,5,,192
2013-6-3,82,74,66,70,66,57,100,78,54,29.97,29.88,29.84,10,10,3,13,5,18,0.00,4,,321
2013-6-4,75,65,55,57,51,43,100,64,33,30.14,30.06,29.98,10,10,10,12,6,18,0.00,0,,340
2013-6-5,80,66,51,57,54,50,100,71,39,30.19,30.12,30.01,10,10,8,13,3,18,0.00,3,,143
2013-6-6,73,66,60,66,59,48,100,79,56,30.09,29.97,29.86,10,9,2,13,4,20,0.00,7,Rain,131
2013-6-7,69,68,66,70,67,66,100,98,88,29.85,29.75,29.60,10,6,1,15,5,18,0.00,8,Rain,346
2013-6-8,80,71,62,68,63,61,100,78,51,30.10,29.93,29.74,10,10,4,9,3,,0.00,4,,245
2013-6-9,82,72,62,73,68,63,100,86,65,30.20,30.13,30.09,10,8,1,13,2,,0.00,6,,108
2013-6-10,82,75,68,75,71,66,100,93,74,30.11,29.94,29.80,10,9,2,16,6,25,0.00,,Thunderstorm,164
2013-6-11,84,74,64,70,65,63,100,78,51,29.87,29.83,29.80,10,10,10,14,4,21,0.00,3,,249
2013-6-12,89,76,64,73,67,63,94,73,43,29.89,29.84,29.79,10,10,10,10,3,17,0.00,2,,234
2013-6-13,86,78,69,73,67,57,100,83,55,29.80,29.67,29.51,10,8,3,26,5,34,0.00,4,,270
2013-6-14,80,70,59,59,55,48,100,63,36,30.00,29.81,29.63,10,10,10,22,13,32,0.00,4,,339
2013-6-15,82,68,55,75,58,54,100,76,39,30.09,30.02,30.00,10,10,8,12,3,,0.00,1,,217
2013-6-16,84,73,62,72,66,57,100,78,42,30.03,29.96,29.90,10,10,5,13,2,17,0.00,8,,221
2013-6-17,87,78,68,73,69,66,100,78,49,29.98,29.94,29.88,10,10,5,8,2,,0.00,3,Thunderstorm,215
2013-6-18,75,70,64,72,67,63,100,94,78,29.92,29.87,29.80,10,8,2,9,2,,0.00,5,Fog-Rain,151
2013-6-19,77,70,62,66,64,61,100,91,65,30.16,30.02,29.90,10,9,0,10,3,,0.00,2,,351
2013-6-20,80,70,60,64,61,55,100,78,47,30.28,30.24,30.17,10,8,1,13,2,18,0.00,4,,157
2013-6-21,82,68,55,63,57,48,100,77,38,30.31,30.27,30.24,10,10,7,10,1,,0.00,0,,143
2013-6-22,86,72,59,68,65,57,100,75,51,30.27,30.22,30.15,10,10,3,14,3,16,0.00,1,,165
2013-6-23,84,76,68,72,70,66,100,86,62,30.20,30.15,30.08,10,8,2,8,2,,0.00,4,Rain,149
2013-6-24,89,78,66,73,70,66,100,92,52,30.14,30.10,30.05,10,8,0,15,1,34,0.00,1,Thunderstorm,184
2013-6-25,91,78,66,75,69,61,100,80,46,30.05,29.99,29.91,10,8,1,13,3,21,0.00,1,,191
2013-6-26,89,79,69,73,68,63,100,76,55,29.94,29.89,29.84,10,10,8,9,2,,0.00,1,Thunderstorm,195
2013-6-27,82,75,68,73,71,68,100,91,70,29.87,29.73,29.64,10,8,0,12,3,17,0.00,5,,196
2013-6-28,87,76,66,73,70,66,100,93,58,29.65,29.58,29.51,10,9,1,16,3,22,0.00,4,Thunderstorm,168
2013-6-29,87,74,62,72,66,61,100,74,40,29.71,29.61,29.55,10,8,0,12,2,,0.00,2,,174
2013-6-30,84,76,69,77,72,68,100,88,70,29.87,29.78,29.71,10,10,4,18,2,25,0.00,3,Thunderstorm,183